Time;durP1;ratioP1;P1;durP2;ratioP2;P2;SDS_P1;SDS_P2;PMS_P1;PMS_P2;Temp;Humidity;BMP_temperature;BMP_pressure;BME280_temperature;BME280_humidity;BME280_pressure;Samples;Min_cycle;Max_cycle;Signal;HPM_P1;HPM_P2
2021/09/29 00:02:10;;;;;;;;;;;;;;;20.15;59.89;101494.56;4997417;28;1522;-58
2021/09/29 00:04:36;;;;;;;;;;;;;;;20.29;59.76;101494.81;4997138;28;1596;-58
2021/09/29 00:07:01;;;;;;;;;;;;;;;20.48;59.19;101481.22;5001652;28;1424;-58
2021/09/29 00:09:26;;;;;;;;;;;;;;;20.43;59.51;101483.19;4997185;28;1906;-54
2021/09/29 00:11:52;;;;;;;;;;;;;;;20.52;59.05;101475.94;4995451;28;1604;-54
2021/09/29 00:14:17;;;;;;;;;;;;;;;20.41;59.35;101480.69;4997251;28;1289;-54
2021/09/29 00:16:43;;;;;;;;;;;;;;;20.01;58.62;101471.44;4997079;28;1752;-53
2021/09/29 00:19:08;;;;;;;;;;;;;;;19.55;57.27;101474.25;4997148;28;1569;-51
2021/09/29 00:21:34;;;;;;;;;;;;;;;19.35;55.22;101469.53;4996973;28;1519;-54
2021/09/29 00:23:59;;;;;;;;;;;;;;;18.96;54.06;101473.66;4994247;28;1746;-53
2021/09/29 00:26:25;;;;;;;;;;;;;;;18.66;53.20;101475.19;4996497;28;1444;-53
2021/09/29 00:28:50;;;;;;;;;;;;;;;18.49;52.10;101466.31;4996656;28;1463;-52
2021/09/29 00:31:27;;;;;;;;;;;;;;;18.41;52.83;101473.16;4995234;28;1898;-52
2021/09/29 00:34:00;;;;;;;;;;;;;;;18.64;54.72;101477.38;4996699;28;1578;-55
2021/09/29 00:36:26;;;;;;;;;;;;;;;19.08;56.08;101474.22;4998785;28;1506;-56
2021/09/29 00:38:52;;;;;;;;;;;;;;;19.30;57.94;101478.63;4996548;28;1437;-55
2021/09/29 00:41:17;;;;;;;;;;;;;;;19.35;59.62;101481.41;4996768;28;1533;-55
2021/09/29 00:43:42;;;;;;;;;;;;;;;19.63;59.86;101473.69;4996620;28;2106;-56
2021/09/29 00:46:08;;;;;;;;;;;;;;;19.73;60.29;101479.19;4996610;28;1454;-55
2021/09/29 00:48:33;;;;;;;;;;;;;;;19.86;60.27;101471.47;4996553;28;1483;-54
2021/09/29 00:50:59;;;;;;;;;;;;;;;20.18;59.84;101480.19;4996313;28;1906;-52
2021/09/29 00:53:24;;;;;;;;;;;;;;;20.27;59.82;101477.72;4994471;28;1516;-54
2021/09/29 00:55:50;;;;;;;;;;;;;;;20.15;60.66;101483.53;4978950;28;1446;-53
2021/09/29 00:58:15;;;;;;;;;;;;;;;20.21;60.51;101478.81;4996449;28;1445;-53
2021/09/29 01:00:41;;;;;;;;;;;;;;;20.39;60.09;101477.38;4995320;28;1480;-53
2021/09/29 01:03:06;;;;;;;;;;;;;;;20.17;59.13;101475.81;4996042;28;1267;-55
2021/09/29 01:05:32;;;;;;;;;;;;;;;19.73;57.89;101476.41;4978259;28;1551;-55
2021/09/29 01:07:59;;;;;;;;;;;;;;;19.38;55.78;101471.75;4983772;28;1650;-55
2021/09/29 01:10:44;;;;;;;;;;;;;;;19.07;54.50;101467.06;4977532;28;1983;-55
2021/09/29 01:13:15;;;;;;;;;;;;;;;18.85;52.41;101471.94;4995712;28;1548;-54
2021/09/29 01:15:45;;;;;;;;;;;;;;;18.52;51.52;101469.34;4978364;28;1489;-56
2021/09/29 01:18:10;;;;;;;;;;;;;;;18.55;52.24;101467.97;4995724;28;1214;-53
2021/09/29 01:20:49;;;;;;;;;;;;;;;18.88;55.56;101471.41;4978617;28;1511;-55
2021/09/29 01:23:24;;;;;;;;;;;;;;;19.11;58.01;101473.66;4979562;28;1433;-55
2021/09/29 01:25:58;;;;;;;;;;;;;;;19.41;59.14;101473.97;4990389;28;1463;-54
2021/09/29 01:28:25;;;;;;;;;;;;;;;19.59;59.69;101480.84;4995339;28;1556;-54
2021/09/29 01:30:51;;;;;;;;;;;;;;;19.83;59.83;101481.94;4994577;28;1902;-54
2021/09/29 01:33:16;;;;;;;;;;;;;;;19.80;60.44;101482.50;4995651;28;1647;-54
2021/09/29 01:35:42;;;;;;;;;;;;;;;20.12;60.05;101480.53;4995548;28;1113;-54
2021/09/29 01:38:07;;;;;;;;;;;;;;;20.41;59.36;101469.66;4980612;28;1141;-55
2021/09/29 01:40:33;;;;;;;;;;;;;;;20.37;59.71;101474.09;4995747;28;1610;-56
2021/09/29 01:42:58;;;;;;;;;;;;;;;20.38;59.84;101480.44;4993994;28;1710;-55
2021/09/29 01:45:24;;;;;;;;;;;;;;;20.55;59.30;101475.34;4995400;28;1507;-58
2021/09/29 01:47:49;;;;;;;;;;;;;;;20.60;59.27;101477.28;4995240;28;1249;-53
2021/09/29 01:50:15;;;;;;;;;;;;;;;20.62;59.05;101475.06;4978060;28;1902;-55
2021/09/29 01:52:42;;;;;;;;;;;;;;;20.57;59.21;101475.91;4977311;28;1543;-57
2021/09/29 01:55:07;;;;;;;;;;;;;;;20.32;59.08;101471.34;4995877;28;1459;-55
2021/09/29 01:57:34;;;;;;;;;;;;;;;19.72;57.62;101472.00;4995258;28;1238;-54
2021/09/29 02:00:00;;;;;;;;;;;;;;;19.38;54.54;101469.81;4994527;28;1484;-55
2021/09/29 02:02:25;;;;;;;;;;;;;;;18.84;52.26;101459.25;4995410;28;1238;-55
2021/09/29 02:04:51;;;;;;;;;;;;;;;18.54;50.21;101466.34;4977494;28;1657;-52
2021/09/29 02:07:17;;;;;;;;;;;;;;;18.24;50.04;101463.19;4994667;28;1468;-56
2021/09/29 02:09:42;;;;;;;;;;;;;;;18.41;53.36;101465.75;4994767;28;2005;-56
2021/09/29 02:12:08;;;;;;;;;;;;;;;18.86;55.50;101466.16;4994961;28;1467;-56
2021/09/29 02:14:33;;;;;;;;;;;;;;;19.11;57.49;101468.16;4994493;28;1331;-53
2021/09/29 02:16:59;;;;;;;;;;;;;;;19.28;59.07;101472.59;4995129;28;1482;-53
2021/09/29 02:19:24;;;;;;;;;;;;;;;19.46;59.95;101472.03;4994741;28;1239;-55
2021/09/29 02:21:50;;;;;;;;;;;;;;;19.78;60.02;101479.19;4995652;28;1629;-54
2021/09/29 02:24:15;;;;;;;;;;;;;;;19.94;60.26;101470.91;4995036;28;1547;-56
2021/09/29 02:26:41;;;;;;;;;;;;;;;19.98;60.59;101477.53;4995155;28;1390;-55
2021/09/29 02:29:07;;;;;;;;;;;;;;;20.20;60.21;101476.34;4994456;28;1495;-56
2021/09/29 02:31:32;;;;;;;;;;;;;;;20.28;60.23;101478.53;4994139;28;1989;-55
2021/09/29 02:33:58;;;;;;;;;;;;;;;20.28;60.35;101484.06;4995394;28;1512;-54
2021/09/29 02:36:23;;;;;;;;;;;;;;;20.34;60.48;101482.91;4996848;28;1435;-56
2021/09/29 02:38:51;;;;;;;;;;;;;;;20.65;59.42;101485.53;4993015;28;1558;-55
2021/09/29 02:41:17;;;;;;;;;;;;;;;20.67;59.44;101486.94;4994603;28;1565;-54
2021/09/29 02:43:42;;;;;;;;;;;;;;;20.71;59.05;101487.22;4994618;28;1365;-55
2021/09/29 02:46:07;;;;;;;;;;;;;;;20.21;58.39;101483.53;4994416;28;1447;-54
2021/09/29 02:48:33;;;;;;;;;;;;;;;19.71;56.27;101484.13;4992481;28;1583;-56
2021/09/29 02:50:58;;;;;;;;;;;;;;;19.20;53.81;101478.66;4993407;28;1914;-56
2021/09/29 02:53:28;;;;;;;;;;;;;;;18.73;51.86;101486.78;4994417;28;1053;-57
2021/09/29 02:55:55;;;;;;;;;;;;;;;18.31;50.63;101476.69;4994639;28;1510;-53
2021/09/29 02:58:21;;;;;;;;;;;;;;;18.10;50.58;101473.84;4994607;28;1642;-56
2021/09/29 03:00:46;;;;;;;;;;;;;;;18.57;53.64;101471.31;4994035;28;1821;-56
2021/09/29 03:03:12;;;;;;;;;;;;;;;18.89;56.01;101476.66;4994786;28;1634;-55
2021/09/29 03:05:37;;;;;;;;;;;;;;;19.31;57.52;101481.13;4994550;28;1616;-56
2021/09/29 03:08:03;;;;;;;;;;;;;;;19.45;58.97;101478.66;4994248;28;1436;-56
2021/09/29 03:10:28;;;;;;;;;;;;;;;19.55;59.76;101474.25;4994398;28;1902;-56
2021/09/29 03:12:53;;;;;;;;;;;;;;;19.72;60.33;101483.03;4993731;28;1525;-55
2021/09/29 03:15:19;;;;;;;;;;;;;;;20.03;60.17;101474.72;4993990;28;1267;-56
2021/09/29 03:17:44;;;;;;;;;;;;;;;20.21;60.05;101478.00;4990935;28;1541;-56
2021/09/29 03:20:10;;;;;;;;;;;;;;;20.20;60.29;101479.09;4993541;28;1714;-54
2021/09/29 03:22:35;;;;;;;;;;;;;;;20.14;60.89;101479.09;4995825;28;1582;-56
2021/09/29 03:25:01;;;;;;;;;;;;;;;20.37;60.21;101482.38;4994327;28;1347;-54
2021/09/29 03:27:26;;;;;;;;;;;;;;;20.51;59.84;101477.88;4994587;28;1454;-56
2021/09/29 03:29:52;;;;;;;;;;;;;;;20.62;59.50;101475.06;4997701;28;1983;-58
2021/09/29 03:32:17;;;;;;;;;;;;;;;20.57;59.77;101467.63;4997382;28;1860;-58
2021/09/29 03:34:42;;;;;;;;;;;;;;;20.40;59.92;101473.50;4997696;28;1628;-58
2021/09/29 03:37:08;;;;;;;;;;;;;;;19.95;58.67;101475.28;4997542;28;1575;-58
2021/09/29 03:39:33;;;;;;;;;;;;;;;19.34;55.95;101465.97;4997593;28;1506;-58
2021/09/29 03:41:59;;;;;;;;;;;;;;;18.93;53.23;101463.19;4995788;28;1514;-59
2021/09/29 03:44:24;;;;;;;;;;;;;;;18.70;50.61;101465.28;4997759;28;1485;-58
2021/09/29 03:46:49;;;;;;;;;;;;;;;18.34;50.16;101461.56;4980206;28;1467;-58
2021/09/29 03:49:15;;;;;;;;;;;;;;;18.66;52.83;101475.19;4997302;28;1441;-58
2021/09/29 03:51:40;;;;;;;;;;;;;;;18.95;55.54;101466.47;4998226;28;1979;-59
2021/09/29 03:54:06;;;;;;;;;;;;;;;19.15;57.35;101472.03;4995902;28;1831;-59
2021/09/29 03:56:31;;;;;;;;;;;;;;;19.40;57.49;101478.63;4997354;28;1471;-61
2021/09/29 03:58:56;;;;;;;;;;;;;;;19.44;56.78;101481.69;4997328;28;1579;-58
2021/09/29 04:01:22;;;;;;;;;;;;;;;19.15;56.32;101485.81;4996704;28;1637;-59
2021/09/29 04:03:47;;;;;;;;;;;;;;;18.96;55.37;101479.16;4995259;28;1453;-58
2021/09/29 04:06:13;;;;;;;;;;;;;;;18.75;54.69;101484.59;4997323;28;1449;-60
2021/09/29 04:08:38;;;;;;;;;;;;;;;18.76;54.19;101489.00;4997125;28;1325;-59
2021/09/29 04:11:06;;;;;;;;;;;;;;;18.88;54.78;101488.78;4995598;28;1990;-59
2021/09/29 04:13:32;;;;;;;;;;;;;;;18.92;55.68;101491.81;4996563;28;1167;-58
2021/09/29 04:15:57;;;;;;;;;;;;;;;18.89;56.55;101495.94;4997041;28;1433;-56
2021/09/29 04:18:26;;;;;;;;;;;;;;;19.03;56.60;101490.75;4996659;28;1651;-64
2021/09/29 04:20:51;;;;;;;;;;;;;;;19.07;56.92;101491.84;4996769;28;1561;-57
2021/09/29 04:23:17;;;;;;;;;;;;;;;19.10;57.00;101496.81;4998228;28;1401;-58
2021/09/29 04:25:42;;;;;;;;;;;;;;;19.11;57.34;101497.63;4996866;28;1529;-58
2021/09/29 04:28:08;;;;;;;;;;;;;;;19.15;57.33;101501.50;4996694;28;1455;-57
2021/09/29 04:30:33;;;;;;;;;;;;;;;19.20;57.43;101507.03;4996568;28;1985;-59
2021/09/29 04:33:00;;;;;;;;;;;;;;;19.18;57.61;101502.88;4997107;28;1481;-58
2021/09/29 04:35:25;;;;;;;;;;;;;;;19.18;57.93;101506.50;4996861;28;1369;-58
2021/09/29 04:37:51;;;;;;;;;;;;;;;19.22;57.71;101513.09;4997766;28;1136;-63
2021/09/29 04:40:16;;;;;;;;;;;;;;;19.44;57.27;101523.88;4995379;28;1472;-53
2021/09/29 04:42:42;;;;;;;;;;;;;;;19.23;57.57;101511.19;4973241;28;1528;-60
2021/09/29 04:45:07;;;;;;;;;;;;;;;19.31;57.37;101513.41;4996796;28;1440;-60
2021/09/29 04:47:33;;;;;;;;;;;;;;;19.26;57.67;101524.41;4997156;28;1393;-57
2021/09/29 04:49:59;;;;;;;;;;;;;;;19.48;56.88;101519.47;4996979;28;1971;-60
2021/09/29 04:52:24;;;;;;;;;;;;;;;19.44;57.24;101523.88;5003043;28;1247;-64
2021/09/29 04:54:50;;;;;;;;;;;;;;;19.35;57.59;101531.06;4997701;28;1823;-53
2021/09/29 04:57:16;;;;;;;;;;;;;;;19.38;57.45;101533.25;4997723;28;1206;-57
2021/09/29 05:03:09;;;;;;;;;;;;;;;19.37;57.59;101537.09;4996823;28;1226;-58
2021/09/29 05:05:35;;;;;;;;;;;;;;;19.45;57.09;101533.81;4980227;28;1435;-64
2021/09/29 05:08:01;;;;;;;;;;;;;;;19.61;56.44;101536.56;4997776;28;1286;-60
2021/09/29 05:10:45;;;;;;;;;;;;;;;19.52;56.73;101535.44;4997633;28;1993;-60
2021/09/29 05:13:17;;;;;;;;;;;;;;;19.52;56.78;101535.44;4997139;28;1631;-61
2021/09/29 05:15:43;;;;;;;;;;;;;;;19.67;56.38;101538.25;4997175;28;1511;-63
2021/09/29 07:21:03;;;;;;;;;;;;;;;18.67;48.94;101565.00;5019244;27;1351604;-57
2021/09/29 07:23:30;;;;;;;;;;;;;;;18.55;47.97;101580.91;5044522;28;11818;-59
2021/09/29 07:25:55;;;;;;;;;;;;;;;18.62;49.11;101578.72;5032830;28;2473;-59
2021/09/29 07:28:21;;;;;;;;;;;;;;;18.94;51.72;101586.06;5100994;22;3664;-59
2021/09/29 07:30:46;;;;;;;;;;;;;;;19.27;54.01;101578.47;5080141;22;2269;-62
2021/09/29 07:33:12;;;;;;;;;;;;;;;19.60;55.66;101595.59;5081432;28;993;-59
2021/09/29 07:35:38;;;;;;;;;;;;;;;19.78;56.45;101592.31;5083597;28;1179;-58
2021/09/29 08:16:25;;;;;;;;;;;;;;;19.91;54.94;101592.88;5093599;27;1552;-57
2021/09/29 08:18:51;;;;;;;;;;;;;;;20.46;54.26;101585.63;5092600;28;1062;-50
2021/09/29 08:21:22;;;;;;;;;;;;;;;20.79;54.65;101588.88;5091290;28;996;-56
2021/09/29 08:23:50;;;;;;;;;;;;;;;21.16;54.87;101589.53;5091938;28;1047;-58
2021/09/29 08:36:30;;;;;;;;;;;;;;;20.47;48.10;101592.81;5091612;28;1976;-58
2021/09/29 08:39:07;;;;;;;;;;;;;;;20.35;45.54;101586.78;5073914;28;869;-59
2021/09/29 08:41:51;;;;;;;;;;;;;;;19.45;45.43;101580.69;5086010;28;877;-54
2021/09/29 08:46:56;;;;;;;;;;;;;;;19.87;47.52;101580.78;5071651;28;743;-50
2021/09/29 08:49:44;;;;;;;;;;;;;;;20.48;49.43;101580.66;5072461;28;837;-47
2021/09/29 09:14:50;;;;;;;;;;;;;;;21.34;53.42;101568.69;5092270;28;790;-46
2021/09/29 09:16:31;;;;;;;;;;;;;;;21.08;51.66;101562.47;5089463;28;1981;-51
2021/09/29 09:18:57;;;;;;;;;;;;;;;20.58;49.28;101568.75;5084515;28;7820;-50
2021/09/29 09:21:23;;;;;;;;;;;;;;;20.17;46.88;101564.16;5083463;28;1036;-48
2021/09/29 09:23:49;;;;;;;;;;;;;;;19.83;44.95;101561.97;5089733;28;1118;-48
2021/09/29 09:26:18;;;;;;;;;;;;;;;19.48;44.26;101560.84;5086921;28;1162;-53
2021/09/29 09:28:43;;;;;;;;;;;;;;;19.34;46.08;101556.97;5078455;28;1119;-48
2021/09/29 09:31:13;;;;;;;;;;;;;;;19.93;48.69;101563.91;5075440;28;996;-51
2021/09/29 09:33:45;;;;;;;;;;;;;;;20.32;51.16;101570.75;5077755;28;1476;-51
2021/09/29 09:36:11;;;;;;;;;;;;;;;20.51;52.23;101574.56;5076875;28;1986;-47
2021/09/29 09:38:40;;;;;;;;;;;;;;;20.64;53.64;101566.81;5056329;28;959;-57
2021/09/29 09:41:06;;;;;;;;;;;;;;;20.91;53.94;101569.19;5078342;28;1051;-55
2021/09/29 09:43:31;;;;;;;;;;;;;;;21.18;53.92;101573.47;5078104;28;1016;-55
2021/09/29 09:45:58;;;;;;;;;;;;;;;21.44;53.60;101579.66;5077681;28;941;-60
2021/09/29 09:48:24;;;;;;;;;;;;;;;21.29;54.55;101575.06;5057646;28;1052;-61
2021/09/29 09:51:03;;;;;;;;;;;;;;;21.58;54.12;101573.53;5059889;28;1119;-61
2021/09/29 09:53:29;;;;;;;;;;;;;;;21.79;53.75;101586.09;5073799;28;1001;-59
2021/09/29 09:55:55;;;;;;;;;;;;;;;21.80;54.05;101578.63;5077646;28;1979;-62
2021/09/29 09:58:20;;;;;;;;;;;;;;;21.83;54.07;101586.34;5076640;28;985;-60
2021/09/29 10:00:45;;;;;;;;;;;;;;;21.61;54.21;101579.31;5070895;28;1103;-60
2021/09/29 10:03:11;;;;;;;;;;;;;;;21.34;53.12;101585.28;5077223;28;1504;-61
2021/09/29 10:05:38;;;;;;;;;;;;;;;20.85;51.53;101590.50;5077423;28;1126;-60
2021/09/29 10:08:06;;;;;;;;;;;;;;;20.89;49.23;101581.63;5075646;28;1064;-60
2021/09/29 10:10:36;;;;;;;;;;;;;;;20.52;48.32;101579.00;5072706;28;1030;-61
2021/09/29 10:24:10;;;;;;;;;;;;;;;20.57;52.66;101585.63;5075714;28;1283;-56
2021/09/29 10:26:35;;;;;;;;;;;;;;;20.73;53.83;101584.47;5059940;28;1008;-60
2021/09/29 10:29:02;;;;;;;;;;;;;;;21.04;54.02;101576.03;5059021;28;1039;-62
2021/09/29 10:31:59;;;;;;;;;;;;;;;21.18;54.25;101581.75;5077125;28;948;-60
2021/09/29 10:34:28;;;;;;;;;;;;;;;21.35;54.59;101586.94;5067300;28;1897;-61
2021/09/29 10:45:29;;;;;;;;;;;;;;;21.60;54.27;101574.06;5075702;28;1055;-60
2021/09/29 10:47:44;;;;;;;;;;;;;;;21.59;53.76;101556.63;5070778;28;1601;-60
2021/09/29 11:09:49;;;;;;;;;;;;;;;19.98;48.34;101557.56;5076849;28;1162;-63
2021/09/29 11:31:34;;;;;;;;;;;;;;;19.89;51.78;101570.25;5073399;28;902;-60
2021/09/29 11:34:10;;;;;;;;;;;;;;;19.99;53.52;101573.00;5075692;28;1012;-57
2021/09/29 12:09:51;;;;;;;;;;;;;;;18.99;53.62;101572.31;5054580;28;1243;-62
2021/09/29 12:14:46;;;;;;;;;;;;;;;19.24;54.73;101573.50;5074877;28;1906;-60
2021/09/29 12:17:12;;;;;;;;;;;;;;;19.08;54.17;101575.38;5070155;28;1225;-58
2021/09/29 12:19:38;;;;;;;;;;;;;;;18.89;53.13;101566.78;5069206;28;945;-58
2021/09/29 12:22:07;;;;;;;;;;;;;;;19.42;52.50;101572.97;5067385;28;859;-59
2021/09/29 12:24:45;;;;;;;;;;;;;;;19.31;52.07;101571.31;5074513;28;1179;-58
2021/09/29 12:27:51;;;;;;;;;;;;;;;18.90;52.44;101568.41;5074422;28;1012;-59
2021/09/29 12:30:42;;;;;;;;;;;;;;;18.92;53.93;101583.59;5072824;28;1136;-57
2021/09/29 12:33:20;;;;;;;;;;;;;;;19.17;55.56;101594.97;5074248;28;1224;-58
2021/09/29 12:35:46;;;;;;;;;;;;;;;19.44;57.03;101595.59;5069172;28;1914;-57
2021/09/29 12:38:12;;;;;;;;;;;;;;;19.75;56.31;101600.31;5066133;28;958;-58
2021/09/29 12:40:38;;;;;;;;;;;;;;;19.45;56.22;101593.66;5074178;28;1323;-65
2021/09/29 12:43:04;;;;;;;;;;;;;;;19.12;55.74;101593.84;5067607;28;1008;-59
2021/09/29 12:45:33;;;;;;;;;;;;;;;19.09;54.66;101593.56;5065770;28;1226;-59
2021/09/29 12:47:59;;;;;;;;;;;;;;;18.95;53.77;101590.50;5069376;28;953;-60
2021/09/29 12:50:35;;;;;;;;;;;;;;;19.02;54.33;101593.00;5073927;28;1178;-59
2021/09/29 12:53:16;;;;;;;;;;;;;;;19.40;55.41;101599.97;5072633;28;1172;-62
2021/09/29 12:55:45;;;;;;;;;;;;;;;19.81;56.39;101605.59;5072157;28;1922;-60
2021/09/29 12:58:11;;;;;;;;;;;;;;;19.94;57.37;101609.72;5074221;28;872;-62
2021/09/29 13:23:53;;;;;;;;;;;;;;;19.83;54.08;101613.59;5069489;28;1137;-56
2021/09/29 13:37:15;;;;;;;;;;;;;;;19.55;54.95;101612.16;5078354;28;829;-58
2021/09/29 13:39:40;;;;;;;;;;;;;;;19.83;56.34;101608.06;5078685;28;836;-58
2021/09/29 13:42:06;;;;;;;;;;;;;;;20.11;57.22;101603.09;5078609;28;737;-50
2021/09/29 13:44:31;;;;;;;;;;;;;;;20.48;57.29;101599.16;5078766;28;739;-63
2021/09/29 13:46:57;;;;;;;;;;;;;;;20.41;58.49;101596.72;5078239;28;824;-59
2021/09/29 13:49:23;;;;;;;;;;;;;;;20.76;58.06;101603.28;5078160;28;850;-64
2021/09/29 13:51:51;;;;;;;;;;;;;;;20.89;58.33;101610.13;5078123;28;823;-61
2021/09/29 13:54:26;;;;;;;;;;;;;;;20.87;58.71;101608.75;5077627;28;1971;-56
2021/09/29 13:57:13;;;;;;;;;;;;;;;20.91;58.95;101598.78;5058120;28;940;-48
2021/09/29 14:29:53;;;;;;;;;;;;;;;20.23;57.38;101622.13;5071798;28;1540;-58
2021/09/29 14:32:27;;;;;;;;;;;;;;;20.49;57.61;101618.22;5069333;28;1244;-57
2021/09/29 14:34:53;;;;;;;;;;;;;;;20.77;57.58;101626.19;5072205;28;1909;-50
2021/09/29 14:37:18;;;;;;;;;;;;;;;20.93;57.64;101625.03;5068047;28;975;-55
2021/09/29 14:39:44;;;;;;;;;;;;;;;20.82;58.25;101627.00;5075643;28;1186;-51
2021/09/29 14:42:09;;;;;;;;;;;;;;;20.96;58.40;101626.41;5068092;28;1230;-48
2021/09/29 14:44:35;;;;;;;;;;;;;;;20.94;58.61;101631.38;5074004;28;1431;-47
2021/09/29 14:47:02;;;;;;;;;;;;;;;20.95;58.46;101635.81;5076834;28;948;-49
2021/09/29 14:49:28;;;;;;;;;;;;;;;20.63;56.82;101632.28;5076702;28;1444;-50
2021/09/29 14:51:58;;;;;;;;;;;;;;;20.19;53.86;101632.94;5075873;28;867;-53
2021/09/29 14:54:24;;;;;;;;;;;;;;;19.52;51.50;101629.25;5073844;28;1914;-50
2021/09/29 14:56:49;;;;;;;;;;;;;;;18.97;49.29;101618.59;5076714;28;952;-51
2021/09/29 14:59:15;;;;;;;;;;;;;;;18.88;48.13;101625.75;5076181;28;1393;-47
2021/09/29 15:01:40;;;;;;;;;;;;;;;18.62;48.35;101622.81;5076177;28;1062;-47
2021/09/29 15:04:06;;;;;;;;;;;;;;;18.84;50.80;101630.09;5076555;28;1038;-56
2021/09/29 15:06:31;;;;;;;;;;;;;;;19.28;53.73;101624.25;5072391;28;1424;-58
2021/09/29 15:08:56;;;;;;;;;;;;;;;19.76;54.91;101624.88;5064426;28;1210;-52
2021/09/29 15:11:22;;;;;;;;;;;;;;;20.03;55.97;101621.03;5069185;28;1143;-48
2021/09/29 15:13:54;;;;;;;;;;;;;;;20.27;56.76;101628.75;5069359;28;996;-57
2021/09/29 15:25:00;;;;;;;;;;;;;;;21.09;57.55;101636.84;5075999;28;1028;-46
2021/09/29 15:29:52;;;;;;;;;;;;;;;21.11;58.03;101642.94;5075647;28;1420;-51
2021/09/29 15:46:52;;;;;;;;;;;;;;;19.20;51.28;101639.38;5074751;28;865;-47
2021/09/29 15:54:52;;;;;;;;;;;;;;;18.83;49.61;101637.53;5055266;28;1910;-60
2021/09/29 15:57:26;;;;;;;;;;;;;;;19.14;50.95;101648.75;5074497;28;1079;-59
2021/09/29 16:02:34;;;;;;;;;;;;;;;19.69;55.67;101657.44;5075276;28;941;-58
2021/09/29 16:31:33;;;;;;;;;;;;;;;19.65;53.84;101687.47;5075350;28;1095;-58
2021/09/29 16:36:42;;;;;;;;;;;;;;;19.18;50.68;101693.13;5076604;28;1977;-55
2021/09/29 16:39:08;;;;;;;;;;;;;;;18.89;50.09;101694.38;5079725;28;977;-57
2021/09/29 16:41:34;;;;;;;;;;;;;;;18.90;50.27;101692.44;5079468;28;1012;-58
2021/09/29 16:43:59;;;;;;;;;;;;;;;19.02;52.04;101706.84;5079264;28;981;-49
2021/09/29 16:46:30;;;;;;;;;;;;;;;19.40;53.53;101710.31;5079133;28;1095;-50
2021/09/29 16:48:55;;;;;;;;;;;;;;;19.79;55.10;101709.91;5078952;28;1154;-49
2021/09/29 16:51:28;;;;;;;;;;;;;;;20.02;56.21;101723.47;5079142;28;1019;-51
2021/09/29 16:53:58;;;;;;;;;;;;;;;20.26;57.05;101719.09;5079017;28;1197;-48
2021/09/29 16:56:23;;;;;;;;;;;;;;;20.43;57.39;101716.03;5079136;28;1918;-49
2021/09/29 16:58:52;;;;;;;;;;;;;;;20.60;57.49;101724.03;5078744;28;913;-51
2021/09/29 17:01:19;;;;;;;;;;;;;;;20.76;57.70;101719.34;5078409;28;1499;-50
2021/09/29 17:03:44;;;;;;;;;;;;;;;20.81;58.19;101727.63;5077454;28;984;-46
2021/09/29 17:06:10;;;;;;;;;;;;;;;20.96;57.92;101748.06;5073314;28;1184;-47
2021/09/29 17:08:37;;;;;;;;;;;;;;;21.15;57.58;101738.06;5075686;28;1009;-51
2021/09/29 17:11:03;;;;;;;;;;;;;;;21.18;57.48;101734.72;5065143;28;1083;-51
2021/09/29 17:13:38;;;;;;;;;;;;;;;20.94;57.24;101747.50;5064837;28;1107;-54
2021/09/29 17:16:04;;;;;;;;;;;;;;;20.50;55.14;101737.88;5076472;28;1906;-53
2021/09/29 17:18:30;;;;;;;;;;;;;;;19.82;52.79;101736.13;5078549;28;1012;-52
2021/09/29 17:20:55;;;;;;;;;;;;;;;19.14;50.18;101735.03;5078812;28;889;-51
2021/09/29 17:23:21;;;;;;;;;;;;;;;18.94;47.88;101734.91;5078091;28;1000;-53
2021/09/29 17:25:46;;;;;;;;;;;;;;;18.83;48.27;101738.66;5078391;28;1043;-50
2021/09/29 17:28:16;;;;;;;;;;;;;;;19.19;51.94;101733.38;5071908;28;937;-54
2021/09/29 17:30:43;;;;;;;;;;;;;;;19.75;53.35;101741.88;5078192;28;1104;-48
2021/09/29 17:33:26;;;;;;;;;;;;;;;19.74;55.88;101743.00;5078215;28;1019;-57
2021/09/29 17:48:04;;;;;;;;;;;;;;;20.58;57.70;101744.75;5071687;28;1010;-48
2021/09/29 17:54:08;;;;;;;;;;;;;;;20.38;56.52;101767.69;5064687;28;1047;-47
2021/09/29 17:56:34;;;;;;;;;;;;;;;20.11;55.18;101757.72;5071391;28;1983;-55
2021/09/29 17:58:59;;;;;;;;;;;;;;;19.84;54.33;101753.25;5075259;28;1079;-48
2021/09/29 18:01:29;;;;;;;;;;;;;;;19.61;53.52;101762.81;5075426;28;948;-52
2021/09/29 18:03:58;;;;;;;;;;;;;;;19.51;52.78;101757.25;5072614;28;957;-47
2021/09/29 18:06:31;;;;;;;;;;;;;;;19.41;52.27;101756.09;5072441;28;862;-49
2021/09/29 18:08:56;;;;;;;;;;;;;;;19.39;51.67;101761.06;5074114;28;1130;-53
2021/09/29 18:11:22;;;;;;;;;;;;;;;19.06;52.08;101763.09;5064040;28;1143;-49
2021/09/29 18:13:47;;;;;;;;;;;;;;;19.13;53.36;101768.38;5065145;28;1135;-53
2021/09/29 18:16:13;;;;;;;;;;;;;;;19.64;54.70;101765.88;5072176;28;1906;-51
2021/09/29 18:18:38;;;;;;;;;;;;;;;20.07;55.43;101762.13;5074259;28;1009;-48
2021/09/29 18:21:03;;;;;;;;;;;;;;;20.26;56.34;101766.03;5077568;28;1063;-49
2021/09/29 18:23:29;;;;;;;;;;;;;;;20.26;57.31;101763.28;5075941;28;1016;-48
2021/09/29 18:25:54;;;;;;;;;;;;;;;20.65;56.90;101767.41;5076943;28;1116;-50
2021/09/29 18:28:20;;;;;;;;;;;;;;;20.68;57.39;101769.66;5077196;28;1079;-46
2021/09/29 18:30:46;;;;;;;;;;;;;;;20.96;57.15;101767.44;5075050;28;949;-46
2021/09/29 18:33:20;;;;;;;;;;;;;;;21.01;57.16;101765.47;5077319;28;1051;-48
2021/09/29 18:35:48;;;;;;;;;;;;;;;21.08;57.52;101770.69;5077503;28;1914;-49
2021/09/29 18:38:15;;;;;;;;;;;;;;;21.10;57.73;101762.16;5077272;28;829;-50
2021/09/29 18:40:41;;;;;;;;;;;;;;;21.11;57.24;101759.09;5076983;28;1028;-46
2021/09/29 18:43:06;;;;;;;;;;;;;;;20.65;57.02;101756.34;5073312;28;1170;-46
2021/09/29 18:45:32;;;;;;;;;;;;;;;20.31;54.54;101751.38;5076806;28;1219;-45
2021/09/29 18:47:57;;;;;;;;;;;;;;;19.93;52.76;101739.75;5076818;28;1134;-46
2021/09/29 18:50:23;;;;;;;;;;;;;;;19.37;50.80;101740.38;5076686;28;1162;-46
2021/09/29 18:52:49;;;;;;;;;;;;;;;18.97;49.25;101754.50;5076940;28;946;-47
2021/09/29 18:55:23;;;;;;;;;;;;;;;18.86;47.93;101755.50;5076692;28;1988;-45
2021/09/29 18:57:58;;;;;;;;;;;;;;;18.97;51.15;101749.00;5076234;28;1413;-46
2021/09/29 19:08:36;;;;;;;;;;;;;;;20.31;56.98;101751.38;5072171;28;1035;-47
2021/09/29 19:11:02;;;;;;;;;;;;;;;20.43;57.52;101743.66;5073405;28;1107;-47
2021/09/29 19:13:28;;;;;;;;;;;;;;;20.59;57.92;101746.41;5075401;28;1139;-47
2021/09/29 19:15:54;;;;;;;;;;;;;;;20.60;58.00;101750.84;5059913;28;1925;-45
2021/09/29 19:18:20;;;;;;;;;;;;;;;20.62;58.57;101741.19;5074511;28;1173;-47
2021/09/29 19:20:46;;;;;;;;;;;;;;;20.82;58.05;101751.41;5075309;28;1012;-46
2021/09/29 19:23:12;;;;;;;;;;;;;;;21.13;57.28;101750.50;5069131;28;1201;-48
2021/09/29 19:25:38;;;;;;;;;;;;;;;21.18;57.33;101759.63;5076352;28;1063;-46
2021/09/29 19:28:04;;;;;;;;;;;;;;;21.17;57.39;101755.19;5076217;28;996;-47
2021/09/29 19:30:29;;;;;;;;;;;;;;;21.11;57.90;101753.56;5076548;28;984;-47
2021/09/29 19:32:58;;;;;;;;;;;;;;;21.12;56.43;101749.66;5076289;28;932;-48
2021/09/29 19:35:24;;;;;;;;;;;;;;;20.15;55.70;101754.13;5067450;28;1913;-51
2021/09/29 19:37:50;;;;;;;;;;;;;;;19.52;52.95;101747.84;5074205;28;898;-46
2021/09/29 19:40:17;;;;;;;;;;;;;;;19.21;50.13;101747.72;5075870;28;1146;-46
2021/09/29 19:42:42;;;;;;;;;;;;;;;18.62;48.31;101747.63;5057125;28;1032;-47
2021/09/29 19:45:09;;;;;;;;;;;;;;;18.77;48.68;101757.06;5074736;28;1175;-45
2021/09/29 20:09:19;;;;;;;;;;;;;;;20.88;58.10;101754.16;5075661;28;1138;-48
2021/09/29 20:11:44;;;;;;;;;;;;;;;21.02;58.03;101755.25;5072962;28;1051;-48
2021/09/29 20:14:13;;;;;;;;;;;;;;;21.02;57.90;101746.94;5071605;28;998;-48
2021/09/29 20:16:39;;;;;;;;;;;;;;;21.23;57.34;101750.47;5070348;28;1914;-46
2021/09/29 20:19:04;;;;;;;;;;;;;;;21.30;57.36;101745.47;5075845;28;984;-46
2021/09/29 20:21:29;;;;;;;;;;;;;;;21.09;57.42;101747.47;5071561;28;1162;-47
2021/09/29 20:23:55;;;;;;;;;;;;;;;20.77;56.01;101743.09;5072952;28;1012;-46
2021/09/29 20:26:20;;;;;;;;;;;;;;;20.02;54.10;101738.13;5073691;28;1083;-49
2021/09/29 20:28:46;;;;;;;;;;;;;;;19.50;51.04;101737.09;5072353;28;1016;-47
2021/09/29 20:31:17;;;;;;;;;;;;;;;19.02;48.72;101739.91;5075953;28;786;-46
2021/09/29 20:44:19;;;;;;;;;;;;;;;20.10;56.70;101745.03;5075205;28;1498;-45
2021/09/29 20:46:45;;;;;;;;;;;;;;;20.41;57.10;101747.81;5075591;28;1035;-47